createdAt,value
2023-01-07T00:00:53.852Z,97490.13
2023-01-07T00:03:20.478Z,97502.97
2023-01-07T00:05:47.055Z,97525.81
2023-01-07T00:08:13.639Z,97475.66
2023-01-07T00:10:40.307Z,97474.34
2023-01-07T00:13:07.073Z,97508.47
2023-01-07T00:15:33.718Z,97488.63
2023-01-07T00:18:00.337Z,97503.63
2023-01-07T00:20:27.058Z,97497.97
2023-01-07T00:22:53.643Z,97486.97
2023-01-07T00:25:20.199Z,97500.63
2023-01-07T00:27:46.841Z,97497.09
2023-01-07T00:30:13.599Z,97505.22
2023-01-07T00:32:40.116Z,97481.31
2023-01-07T00:35:07.180Z,97469.22
2023-01-07T00:37:33.840Z,97499.22
2023-01-07T00:40:00.460Z,97485.59
2023-01-07T00:42:27.033Z,97509.44
2023-01-07T00:44:53.577Z,97465.22
2023-01-07T00:47:20.100Z,97478.59
2023-01-07T00:49:46.635Z,97476.91
2023-01-07T00:52:13.286Z,97481.97
2023-01-07T00:54:39.902Z,97486.00
2023-01-07T00:57:06.534Z,97492.47
2023-01-07T00:59:33.206Z,97491.72
2023-01-07T01:02:00.006Z,97476.38
2023-01-07T01:04:26.751Z,97482.81
2023-01-07T01:06:53.475Z,97492.78
2023-01-07T01:09:20.088Z,97497.47
2023-01-07T01:11:46.674Z,97476.03
2023-01-07T01:14:13.217Z,97493.75
2023-01-07T01:16:39.878Z,97489.44
2023-01-07T01:19:06.515Z,97516.50
2023-01-07T01:21:33.057Z,97481.94
2023-01-07T01:23:59.580Z,97489.41
2023-01-07T01:26:26.128Z,97462.59
2023-01-07T01:28:52.784Z,97490.22
2023-01-07T01:31:19.427Z,97493.75
2023-01-07T01:33:46.007Z,97501.28
2023-01-07T01:36:12.623Z,97474.69
2023-01-07T01:38:39.400Z,97479.19
2023-01-07T01:41:06.553Z,97487.50
2023-01-07T01:43:38.083Z,97480.22
2023-01-07T01:46:06.525Z,97503.81
2023-01-07T01:48:33.806Z,97471.38
2023-01-07T01:51:00.369Z,97489.31
2023-01-07T01:53:28.584Z,97458.25
2023-01-07T01:56:04.240Z,97478.38
2023-01-07T01:58:36.439Z,97478.63
2023-01-07T02:01:03.060Z,97488.53
2023-01-07T02:03:30.102Z,97485.34
2023-01-07T02:05:56.648Z,97482.09
2023-01-07T02:08:23.250Z,97472.16
2023-01-07T02:11:18.733Z,97449.56
2023-01-07T02:14:21.668Z,97448.16
2023-01-07T02:17:12.043Z,97475.25
2023-01-07T02:20:00.876Z,97472.63
2023-01-07T02:22:47.945Z,97462.44
2023-01-07T02:25:26.695Z,97458.16
2023-01-07T02:28:14.323Z,97446.00
2023-01-07T02:30:59.627Z,97461.81
2023-01-07T02:33:44.480Z,97421.66
2023-01-07T02:36:26.074Z,97431.56
2023-01-07T02:39:21.663Z,97450.59
2023-01-07T02:41:54.460Z,97424.03
2023-01-07T02:44:45.384Z,97440.09
2023-01-07T02:47:16.708Z,97416.28
2023-01-07T02:49:43.259Z,97433.16
2023-01-07T02:52:18.832Z,97413.53
2023-01-07T02:54:45.656Z,97424.25
2023-01-07T02:57:30.964Z,97415.63
2023-01-07T03:00:21.803Z,97413.47
2023-01-07T03:03:12.601Z,97432.28
2023-01-07T03:05:54.931Z,97418.88
2023-01-07T03:08:21.481Z,97400.63
2023-01-07T03:10:54.368Z,97409.22
2023-01-07T03:13:26.180Z,97402.75
2023-01-07T03:16:08.962Z,97393.91
2023-01-07T03:18:55.740Z,97397.94
2023-01-07T03:21:22.267Z,97397.94
2023-01-07T03:23:51.836Z,97389.41
2023-01-07T03:26:20.433Z,97427.38
2023-01-07T03:28:47.016Z,97394.19
2023-01-07T03:31:14.061Z,97394.72
2023-01-07T03:33:49.362Z,97388.31
2023-01-07T03:36:16.613Z,97383.47
2023-01-07T03:38:43.244Z,97369.59
2023-01-07T03:41:09.851Z,97384.34
2023-01-07T03:43:36.401Z,97392.91
2023-01-07T03:46:03.121Z,97388.09
2023-01-07T03:48:29.706Z,97374.06
2023-01-07T03:50:56.229Z,97366.59
2023-01-07T03:53:22.820Z,97368.22
2023-01-07T03:55:49.343Z,97385.13
2023-01-07T03:58:15.847Z,97352.41
2023-01-07T04:00:42.556Z,97365.50
2023-01-07T04:03:09.188Z,97374.06
2023-01-07T04:05:35.716Z,97352.34
2023-01-07T04:08:02.359Z,97375.91
2023-01-07T04:10:28.979Z,97368.13
2023-01-07T04:12:55.654Z,97334.97
2023-01-07T04:15:22.297Z,97355.28
2023-01-07T04:17:49.015Z,97336.53
2023-01-07T04:20:15.578Z,97332.53
2023-01-07T04:22:42.077Z,97342.44
2023-01-07T04:25:08.589Z,97356.13
2023-01-07T04:27:35.068Z,97318.31
2023-01-07T04:30:01.649Z,97337.88
2023-01-07T04:32:28.181Z,97331.94
2023-01-07T04:34:54.690Z,97341.91
2023-01-07T04:37:21.257Z,97334.91
2023-01-07T04:39:47.896Z,97333.66
2023-01-07T04:42:14.464Z,97328.31
2023-01-07T04:44:41.041Z,97317.38
2023-01-07T04:47:07.559Z,97350.91
2023-01-07T04:49:34.047Z,97337.44
2023-01-07T04:52:00.653Z,97335.59
2023-01-07T04:54:27.252Z,97318.44
2023-01-07T04:56:53.825Z,97306.88
2023-01-07T04:59:20.340Z,97311.44
2023-01-07T05:01:47.048Z,97314.13
2023-01-07T05:04:13.643Z,97324.63
2023-01-07T05:06:40.177Z,97305.06
2023-01-07T05:09:06.679Z,97309.16
2023-01-07T05:11:33.281Z,97302.16
2023-01-07T05:14:00.579Z,97303.75
2023-01-07T05:16:27.196Z,97300.50
2023-01-07T05:18:53.708Z,97282.31
2023-01-07T05:21:20.236Z,97294.34
2023-01-07T05:23:46.743Z,97286.59
2023-01-07T05:26:13.277Z,97257.13
2023-01-07T05:28:39.886Z,97301.38
2023-01-07T05:31:06.540Z,97275.38
2023-01-07T05:33:33.544Z,97267.28
2023-01-07T05:36:00.175Z,97265.09
2023-01-07T05:38:26.847Z,97280.09
2023-01-07T05:40:53.511Z,97262.75
2023-01-07T05:43:20.097Z,97285.75
2023-01-07T05:45:47.242Z,97271.03
2023-01-07T05:48:14.022Z,97268.31
2023-01-07T05:50:40.853Z,97269.38
2023-01-07T05:53:07.409Z,97271.25
2023-01-07T05:55:35.830Z,97262.94
2023-01-07T05:58:02.566Z,97227.50
2023-01-07T06:00:29.169Z,97262.59
2023-01-07T06:02:55.767Z,97252.94
2023-01-07T06:05:22.408Z,97248.34
2023-01-07T06:07:49.069Z,97258.88
2023-01-07T06:10:15.730Z,97259.38
2023-01-07T06:12:42.350Z,97258.06
2023-01-07T06:15:09.231Z,97243.59
2023-01-07T06:17:35.972Z,97244.41
2023-01-07T06:20:02.489Z,97260.22
2023-01-07T06:22:28.963Z,97249.47
2023-01-07T06:24:55.504Z,97258.09
2023-01-07T06:27:22.227Z,97252.72
2023-01-07T06:29:48.740Z,97270.91
2023-01-07T06:32:15.235Z,97267.09
2023-01-07T06:34:41.796Z,97264.16
2023-01-07T06:37:08.341Z,97238.47
2023-01-07T06:39:34.963Z,97245.66
2023-01-07T06:42:01.612Z,97255.91
2023-01-07T06:44:28.254Z,97237.91
2023-01-07T06:46:55.021Z,97238.19
2023-01-07T06:49:21.671Z,97245.41
2023-01-07T06:51:48.213Z,97250.50
2023-01-07T06:54:14.829Z,97238.47
2023-01-07T06:56:41.374Z,97229.38
2023-01-07T06:59:07.921Z,97243.03
2023-01-07T07:01:34.569Z,97226.97
2023-01-07T07:04:01.181Z,97211.41
2023-01-07T07:06:27.666Z,97242.47
2023-01-07T07:08:54.454Z,97249.69
2023-01-07T07:11:21.014Z,97246.25
2023-01-07T07:13:47.736Z,97243.28
2023-01-07T07:16:14.318Z,97235.53
2023-01-07T07:18:40.899Z,97233.91
2023-01-07T07:21:07.441Z,97225.31
2023-01-07T07:23:33.949Z,97238.19
2023-01-07T07:26:00.508Z,97236.31
2023-01-07T07:28:27.012Z,97237.09
2023-01-07T07:30:53.603Z,97235.50
2023-01-07T07:33:20.993Z,97231.47
2023-01-07T07:35:47.835Z,97220.75
2023-01-07T07:38:14.516Z,97228.03
2023-01-07T07:40:42.009Z,97230.16
2023-01-07T07:43:11.885Z,97222.69
2023-01-07T07:45:40.683Z,97214.16
2023-01-07T07:48:07.856Z,97215.22
2023-01-07T07:50:34.957Z,97215.25
2023-01-07T07:53:01.481Z,97216.78
2023-01-07T07:55:28.001Z,97218.19
2023-01-07T07:57:55.045Z,97199.97
2023-01-07T08:00:22.013Z,97211.53
2023-01-07T08:02:48.607Z,97160.06
2023-01-07T08:05:15.365Z,97180.97
2023-01-07T08:07:42.324Z,97178.03
2023-01-07T08:10:09.925Z,97181.28
2023-01-07T08:12:37.763Z,97184.00
2023-01-07T08:15:05.649Z,97188.81
2023-01-07T08:17:32.191Z,97180.53
2023-01-07T08:19:58.681Z,97171.75
2023-01-07T08:22:25.192Z,97164.50
2023-01-07T08:24:51.678Z,97191.34
2023-01-07T08:27:18.270Z,97205.53
2023-01-07T08:29:44.795Z,97185.19
2023-01-07T08:32:11.317Z,97174.22
2023-01-07T08:34:37.853Z,97165.91
2023-01-07T08:37:04.871Z,97168.34
2023-01-07T08:39:31.374Z,97185.50
2023-01-07T08:41:58.590Z,97170.75
2023-01-07T08:44:25.484Z,97154.09
2023-01-07T08:46:52.746Z,97172.59
2023-01-07T08:49:19.489Z,97162.59
2023-01-07T08:51:46.270Z,97160.69
2023-01-07T08:54:12.913Z,97167.66
2023-01-07T08:56:39.570Z,97146.34
2023-01-07T08:59:06.854Z,97153.94
2023-01-07T09:01:33.641Z,97152.63
2023-01-07T09:04:00.481Z,97162.28
2023-01-07T09:06:27.124Z,97133.75
2023-01-07T09:08:53.828Z,97138.72
2023-01-07T09:11:20.451Z,97168.78
2023-01-07T09:13:46.977Z,97155.19
2023-01-07T09:16:13.506Z,97129.25
2023-01-07T09:18:40.079Z,97123.22
2023-01-07T09:21:06.664Z,97143.19
2023-01-07T09:23:33.357Z,97138.06
2023-01-07T09:25:59.887Z,97147.78
2023-01-07T09:28:26.458Z,97140.88
2023-01-07T09:30:54.799Z,97155.06
2023-01-07T09:33:22.557Z,97147.88
2023-01-07T09:35:49.204Z,97133.50
2023-01-07T09:38:15.748Z,97141.19
2023-01-07T09:40:42.880Z,97139.59
2023-01-07T09:43:59.835Z,97130.09
2023-01-07T09:46:17.018Z,97126.97
2023-01-07T09:48:48.760Z,97115.22
2023-01-07T09:51:22.319Z,97099.19
2023-01-07T09:53:51.763Z,97115.72
2023-01-07T09:56:21.135Z,97111.97
2023-01-07T09:58:47.647Z,97107.28
2023-01-07T10:01:23.593Z,97101.81
2023-01-07T10:04:10.144Z,97098.31
2023-01-07T10:06:59.007Z,97065.59
2023-01-07T10:09:49.959Z,97102.72
2023-01-07T10:12:28.550Z,97108.66
2023-01-07T10:15:15.560Z,97092.81
2023-01-07T10:17:59.730Z,97049.78
2023-01-07T10:20:32.572Z,97094.19
2023-01-07T10:23:16.107Z,97092.50
2023-01-07T10:25:48.037Z,97073.84
2023-01-07T10:28:37.534Z,97076.25
2023-01-07T10:31:04.162Z,97055.69
2023-01-07T10:33:33.912Z,97070.94
2023-01-07T10:36:28.850Z,97044.22
2023-01-07T10:39:01.284Z,97051.78
2023-01-07T10:41:55.924Z,97056.28
2023-01-07T10:44:45.957Z,97045.88
2023-01-07T10:47:24.468Z,97045.78
2023-01-07T10:50:01.010Z,97039.84
2023-01-07T10:52:52.119Z,97047.84
2023-01-07T10:55:37.312Z,97036.09
2023-01-07T10:58:03.849Z,97035.94
2023-01-07T11:00:30.651Z,97006.69
2023-01-07T11:02:58.468Z,97009.38
2023-01-07T11:05:38.157Z,97020.78
2023-01-07T11:08:05.236Z,96980.81
2023-01-07T11:10:34.584Z,97040.16
2023-01-07T11:13:29.172Z,97023.16
2023-01-07T11:16:06.064Z,97004.47
2023-01-07T11:18:47.168Z,97022.38
2023-01-07T11:21:42.488Z,97013.16
2023-01-07T11:24:30.868Z,97043.91
2023-01-07T11:27:14.227Z,96973.13
2023-01-07T11:30:03.696Z,96950.47
2023-01-07T11:32:31.750Z,96990.34
2023-01-07T11:35:22.613Z,96998.97
2023-01-07T11:37:49.634Z,96969.56
2023-01-07T11:40:16.051Z,96924.75
2023-01-07T11:42:54.018Z,96947.41
2023-01-07T11:45:36.814Z,96973.16
2023-01-07T11:48:09.910Z,96998.38
2023-01-07T11:50:38.742Z,96950.69
2023-01-07T11:53:09.831Z,96953.16
2023-01-07T11:55:36.544Z,96949.25
2023-01-07T11:58:27.767Z,96926.28
2023-01-07T12:01:07.518Z,96944.50
2023-01-07T12:03:35.728Z,96922.75
2023-01-07T12:06:26.567Z,96917.59
2023-01-07T12:08:54.801Z,96931.81
2023-01-07T12:11:21.457Z,96941.53
2023-01-07T12:13:50.202Z,96899.97
2023-01-07T12:16:17.574Z,96890.00
2023-01-07T12:19:02.705Z,96904.66
2023-01-07T12:21:44.076Z,96900.22
2023-01-07T12:24:22.619Z,96889.84
2023-01-07T12:27:26.303Z,96895.66
2023-01-07T12:30:26.510Z,96891.25
2023-01-07T12:33:17.462Z,96883.94
2023-01-07T12:35:44.230Z,96856.97
2023-01-07T12:38:22.285Z,96896.34
2023-01-07T12:40:54.842Z,96856.38
2023-01-07T12:43:36.514Z,96879.44
2023-01-07T12:46:05.115Z,96873.47
2023-01-07T12:48:52.305Z,96869.44
2023-01-07T12:51:47.040Z,96863.47
2023-01-07T12:54:18.086Z,96843.44
2023-01-07T12:56:55.551Z,96851.25
2023-01-07T12:59:47.368Z,96818.06
2023-01-07T13:02:21.492Z,96831.97
2023-01-07T13:05:15.816Z,96844.63
2023-01-07T13:07:42.423Z,96837.16
2023-01-07T13:10:22.443Z,96857.84
2023-01-07T13:12:49.715Z,96827.84
2023-01-07T13:15:23.253Z,96822.25
2023-01-07T13:17:50.550Z,96829.34
2023-01-07T13:20:18.017Z,96820.28
2023-01-07T13:22:51.230Z,96809.25
2023-01-07T13:25:59.805Z,96824.69
2023-01-07T13:29:00.136Z,96832.06
2023-01-07T13:31:45.660Z,96833.88
2023-01-07T13:34:45.243Z,96802.50
2023-01-07T13:37:18.513Z,96811.97
2023-01-07T13:40:00.498Z,96779.13
2023-01-07T13:42:44.899Z,96826.28
2023-01-07T13:45:12.402Z,96823.75
2023-01-07T13:47:42.087Z,96820.75
2023-01-07T13:50:18.163Z,96693.41
2023-01-07T13:52:44.711Z,96821.84
2023-01-07T13:55:32.489Z,96809.88
2023-01-07T13:57:59.134Z,96818.66
2023-01-07T14:00:39.398Z,96819.16
2023-01-07T14:03:28.494Z,96844.22
2023-01-07T14:06:27.198Z,96816.19
2023-01-07T14:08:54.703Z,96820.03
2023-01-07T14:11:59.997Z,96797.78
2023-01-07T14:14:52.291Z,96827.03
2023-01-07T14:17:41.307Z,96842.22
2023-01-07T14:20:32.535Z,96824.81
2023-01-07T14:23:27.056Z,96825.91
2023-01-07T14:26:07.990Z,96819.75
2023-01-07T14:29:19.340Z,96833.84
2023-01-07T14:31:45.841Z,96830.72
2023-01-07T14:34:26.054Z,96831.06
2023-01-07T14:37:01.750Z,96839.56
2023-01-07T14:39:44.210Z,96827.25
2023-01-07T14:42:16.670Z,96826.34
2023-01-07T14:44:43.582Z,96813.16
2023-01-07T14:47:11.306Z,96803.06
2023-01-07T14:49:48.437Z,96828.38
2023-01-07T14:52:25.525Z,96813.41
2023-01-07T14:55:27.261Z,96817.84
2023-01-07T14:57:56.660Z,96821.75
2023-01-07T15:00:26.247Z,96809.75
2023-01-07T15:03:30.458Z,96821.81
2023-01-07T15:06:12.150Z,96820.59
2023-01-07T15:08:58.785Z,96786.56
2023-01-07T15:11:25.334Z,96830.44
2023-01-07T15:14:04.096Z,96811.03
2023-01-07T15:16:30.805Z,96797.19
2023-01-07T15:18:57.612Z,96773.19
2023-01-07T15:21:35.989Z,96822.50
2023-01-07T15:24:15.985Z,96791.09
2023-01-07T15:26:51.434Z,96806.53
2023-01-07T15:29:42.650Z,96812.06
2023-01-07T15:32:30.482Z,96815.69
2023-01-07T15:34:57.205Z,96794.84
2023-01-07T15:37:23.763Z,96803.06
2023-01-07T15:39:57.228Z,96811.72
2023-01-07T15:42:24.832Z,96811.19
2023-01-07T15:44:56.132Z,96803.75
2023-01-07T15:47:31.762Z,96790.13
2023-01-07T15:50:21.153Z,96786.69
2023-01-07T15:53:00.197Z,96783.50
2023-01-07T15:55:26.785Z,96822.88
2023-01-07T15:57:57.216Z,96801.75
2023-01-07T16:00:24.483Z,96817.25
2023-01-07T16:02:51.033Z,96796.41
2023-01-07T16:05:17.523Z,96801.22
2023-01-07T16:07:55.188Z,96814.59
2023-01-07T16:10:34.510Z,96811.09
2023-01-07T16:13:06.741Z,96828.69
2023-01-07T16:15:35.020Z,96812.94
2023-01-07T16:18:02.952Z,96825.78
2023-01-07T16:20:37.855Z,96792.38
2023-01-07T16:23:10.452Z,96811.56
2023-01-07T16:25:38.496Z,96814.97
2023-01-07T16:28:05.270Z,96787.41
2023-01-07T16:30:32.339Z,96820.84
2023-01-07T16:32:58.885Z,96799.63
2023-01-07T16:35:31.900Z,96809.59
2023-01-07T16:37:58.441Z,96794.19
2023-01-07T16:40:38.284Z,96817.41
2023-01-07T16:43:05.739Z,96800.28
2023-01-07T16:45:33.531Z,96830.47
2023-01-07T16:48:13.881Z,96789.59
2023-01-07T16:50:41.600Z,96807.97
2023-01-07T16:53:21.785Z,96804.78
2023-01-07T16:56:09.422Z,96822.44
2023-01-07T16:58:54.440Z,96818.22
2023-01-07T17:01:31.269Z,96814.03
2023-01-07T17:03:59.442Z,96787.75
2023-01-07T17:06:36.691Z,96829.88
2023-01-07T17:09:03.335Z,96809.50
2023-01-07T17:11:34.395Z,96810.81
2023-01-07T17:14:00.951Z,96810.28
2023-01-07T17:16:34.313Z,96809.34
2023-01-07T17:19:25.285Z,96817.13
2023-01-07T17:21:51.926Z,96830.06
2023-01-07T17:24:27.565Z,96826.09
2023-01-07T17:26:55.365Z,96824.19
2023-01-07T17:29:21.902Z,96810.44
2023-01-07T17:31:48.558Z,96793.84
2023-01-07T17:34:15.119Z,96773.72
2023-01-07T17:36:41.640Z,96817.22
2023-01-07T17:39:08.228Z,96757.31
2023-01-07T17:41:35.285Z,96760.44
2023-01-07T17:44:05.864Z,96759.44
2023-01-07T17:46:32.403Z,96767.66
2023-01-07T17:48:59.344Z,96750.19
2023-01-07T17:51:25.964Z,96744.44
2023-01-07T17:53:52.766Z,96769.81
2023-01-07T17:56:19.281Z,96775.38
2023-01-07T17:58:45.901Z,96789.41
2023-01-07T18:01:17.015Z,96770.94
2023-01-07T18:03:43.646Z,96773.38
2023-01-07T18:06:17.832Z,96780.91
2023-01-07T18:08:48.929Z,96778.81
2023-01-07T18:11:23.267Z,96749.81
2023-01-07T18:13:49.793Z,96775.47
2023-01-07T18:16:16.522Z,96769.56
2023-01-07T18:18:43.036Z,96788.28
2023-01-07T18:21:11.208Z,96809.63
2023-01-07T18:23:37.719Z,96788.25
2023-01-07T18:26:07.057Z,96770.97
2023-01-07T18:28:33.673Z,96785.19
2023-01-07T18:31:00.188Z,96787.00
2023-01-07T18:33:26.744Z,96776.00
2023-01-07T18:35:53.257Z,96777.47
2023-01-07T18:38:19.755Z,96777.47
2023-01-07T18:40:46.255Z,96769.50
2023-01-07T18:43:13.615Z,96758.00
2023-01-07T18:45:41.082Z,96791.25
2023-01-07T18:48:07.649Z,96797.53
2023-01-07T18:50:34.175Z,96795.91
2023-01-07T18:53:00.752Z,96773.97
2023-01-07T18:55:27.373Z,96772.25
2023-01-07T18:57:53.891Z,96758.38
2023-01-07T19:00:20.816Z,96812.56
2023-01-07T19:02:47.339Z,96760.47
2023-01-07T19:05:13.852Z,96776.13
2023-01-07T19:07:40.471Z,96761.09
2023-01-07T19:10:07.458Z,96780.47
2023-01-07T19:12:34.022Z,96771.44
2023-01-07T19:15:00.587Z,96791.25
2023-01-07T19:17:27.249Z,96778.19
2023-01-07T19:19:53.771Z,96777.63
2023-01-07T19:22:20.303Z,96786.34
2023-01-07T19:24:47.787Z,96748.59
2023-01-07T19:27:14.274Z,96763.09
2023-01-07T19:29:40.809Z,96767.41
2023-01-07T19:32:07.458Z,96792.75
2023-01-07T19:34:34.013Z,96786.00
2023-01-07T19:37:00.517Z,96778.75
2023-01-07T19:39:27.020Z,96776.84
2023-01-07T19:41:53.574Z,96824.19
2023-01-07T19:44:20.118Z,96793.19
2023-01-07T19:46:46.759Z,96796.09
2023-01-07T19:49:13.762Z,96782.97
2023-01-07T19:51:40.992Z,96786.03
2023-01-07T19:54:07.876Z,96818.28
2023-01-07T19:56:34.418Z,96795.13
2023-01-07T19:59:01.031Z,96806.66
2023-01-07T20:01:30.935Z,96798.75
2023-01-07T20:03:58.066Z,96805.19
2023-01-07T20:06:26.304Z,96816.16
2023-01-07T20:08:56.898Z,96814.50
2023-01-07T20:11:23.739Z,96810.41
2023-01-07T20:13:50.545Z,96805.78
2023-01-07T20:16:20.313Z,96775.84
2023-01-07T20:18:47.823Z,96811.59
2023-01-07T20:21:15.228Z,96773.69
2023-01-07T20:23:41.851Z,96778.63
2023-01-07T20:26:13.581Z,96781.28
2023-01-07T20:28:40.508Z,96770.19
2023-01-07T20:31:08.717Z,96755.50
2023-01-07T20:33:35.303Z,96780.59
2023-01-07T20:36:02.611Z,96788.31
2023-01-07T20:38:29.123Z,96763.59
2023-01-07T20:40:55.624Z,96779.75
2023-01-07T20:43:22.199Z,96784.88
2023-01-07T20:45:48.821Z,96772.97
2023-01-07T20:48:15.486Z,96748.59
2023-01-07T20:50:42.442Z,96742.97
2023-01-07T20:53:09.472Z,96781.53
2023-01-07T20:55:36.057Z,96760.63
2023-01-07T20:58:02.644Z,96777.75
2023-01-07T21:00:29.172Z,96784.13
2023-01-07T21:02:56.025Z,96803.19
2023-01-07T21:05:22.631Z,96774.44
2023-01-07T21:07:49.172Z,96754.06
2023-01-07T21:10:16.779Z,96739.03
2023-01-07T21:12:43.309Z,96754.81
2023-01-07T21:15:13.896Z,96747.34
2023-01-07T21:17:40.766Z,96757.63
2023-01-07T21:20:08.465Z,96764.88
2023-01-07T21:22:35.071Z,96735.34
2023-01-07T21:25:01.624Z,96733.25
2023-01-07T21:27:28.157Z,96762.34
2023-01-07T21:29:54.710Z,96742.38
2023-01-07T21:32:21.242Z,96734.81
2023-01-07T21:34:47.811Z,96746.81
2023-01-07T21:37:14.306Z,96747.28
2023-01-07T21:39:40.812Z,96725.25
2023-01-07T21:42:07.338Z,96734.47
2023-01-07T21:44:33.854Z,96752.34
2023-01-07T21:47:00.364Z,96734.88
2023-01-07T21:49:26.926Z,96743.16
2023-01-07T21:51:53.449Z,96748.47
2023-01-07T21:54:19.991Z,96716.09
2023-01-07T21:56:46.550Z,96725.75
2023-01-07T21:59:13.388Z,96745.34
2023-01-07T22:01:40.629Z,96715.38
2023-01-07T22:04:07.186Z,96722.19
2023-01-07T22:06:34.784Z,96736.16
2023-01-07T22:09:08.478Z,96749.97
2023-01-07T22:11:35.481Z,96733.16
2023-01-07T22:14:02.165Z,96726.47
2023-01-07T22:16:29.620Z,96723.75
2023-01-07T22:18:56.761Z,96733.78
2023-01-07T22:21:23.401Z,96727.81
2023-01-07T22:23:50.028Z,96724.91
2023-01-07T22:26:17.623Z,96718.78
2023-01-07T22:28:45.901Z,96718.56
2023-01-07T22:31:20.150Z,96712.09
2023-01-07T22:33:46.663Z,96721.97
2023-01-07T22:36:14.969Z,96699.03
2023-01-07T22:38:41.505Z,96731.53
2023-01-07T22:41:08.026Z,96722.91
2023-01-07T22:43:34.550Z,96710.31
2023-01-07T22:46:04.137Z,96707.78
2023-01-07T22:48:32.159Z,96705.75
2023-01-07T22:51:02.763Z,96685.81
2023-01-07T22:53:29.726Z,96676.94
2023-01-07T22:55:57.077Z,96705.25
2023-01-07T22:58:23.590Z,96691.53
2023-01-07T23:00:53.049Z,96688.69
2023-01-07T23:03:20.208Z,96686.38
2023-01-07T23:05:46.943Z,96695.31
2023-01-07T23:08:13.506Z,96723.31
2023-01-07T23:10:40.083Z,96704.03
2023-01-07T23:13:06.736Z,96691.56
2023-01-07T23:15:33.798Z,96689.56
2023-01-07T23:18:00.309Z,96715.03
2023-01-07T23:20:26.905Z,96702.16
2023-01-07T23:22:53.433Z,96690.09
2023-01-07T23:25:19.944Z,96696.25
2023-01-07T23:27:48.737Z,96676.97
2023-01-07T23:30:15.288Z,96661.50
2023-01-07T23:32:41.819Z,96649.66
2023-01-07T23:35:08.609Z,96639.09
2023-01-07T23:37:35.157Z,96654.53
2023-01-07T23:40:01.661Z,96668.97
2023-01-07T23:42:28.196Z,96681.56
2023-01-07T23:44:54.767Z,96681.78
2023-01-07T23:47:21.276Z,96641.53
2023-01-07T23:49:47.822Z,96707.78
2023-01-07T23:52:14.330Z,96673.47
2023-01-07T23:54:41.163Z,96650.09
2023-01-07T23:57:07.850Z,96661.03
2023-01-07T23:59:34.610Z,96645.38
